Nearby METAR Reports

 

LBSF - Sofia (observato, Bulgaria
Distance from station: ENE 64km
Updated: 02/12/2022 11:30
Overcast
Overcast
 Wind from varies
Wind: varies 2 km/h
Temperature: 4°C
Dew Point: 1°C
Humidity: 81%
Barometer: 1022 hPa
Clouds: Overcast
Visibility: 10 km
Cloud details: Partly Cloudy 274 m
Overcast 366 m
2022/12/02 09:30 LBSF 020930Z VRB01KT 9999 SCT009 OVC012 04/01 Q1022 NOSIG
LWSK - Skopje/Petrovac, Macedonia
Distance from station: WSW 99km
Updated: 02/12/2022 11:30
Overcast
Overcast
 Wind from calm
Wind: Calm
Temperature: 7°C
Dew Point: 5°C
Humidity: 87%
Barometer: 1022 hPa
Clouds: Overcast
Visibility: 10 km
Cloud details: Mostly Cloudy 305 m
Overcast 762 m
2022/12/02 09:30 LWSK 020930Z 00000KT 9999 BKN010 OVC025 07/05 Q1022 NOSIG
 
LYNI - Nis, Yugoslavia
Distance from station: NNW 127km
Updated: 02/12/2022 11:30
Mostly Cloudy
Mostly Cloudy
 Wind from SE
Wind: SE 6 km/h
Temperature: 5°C
Dew Point: 2°C
Humidity: 81%
Barometer: 1023 hPa
Clouds: Mostly Cloudy
Visibility: 10 km
Cloud details: Few Clouds 396 m
Mostly Cloudy 762 m
2022/12/02 09:30 LYNI 020930Z 14003KT 110V210 9999 FEW013 BKN025 05/02 Q1023 NOSIG
BKPR - Prishtina, Yugoslavia
Distance from station: W 141km
Updated: 02/12/2022 11:30
Mostly Cloudy
Mostly Cloudy
 Wind from SSE
Wind: SSE 6 km/h
Temperature: 4°C
Dew Point: 2°C
Humidity: 87%
Barometer: 1021 hPa
Clouds: Mostly Cloudy
Visibility: 10 km
Cloud details: Few Clouds 244 m
Partly Cloudy 762 m
Mostly Cloudy 1829 m
2022/12/02 09:30 BKPR 020930Z 15003KT 9999 FEW008 SCT025 BKN060 04/02 Q1021 NOSIG